Grassy Meadows, West Virginia
Current Conditions -  °F | °C
As of 2:55 AM on Tuesday 21 Oct 2014 (Local Time) from KLWB Reporting Station
Overcast Overcast  
Wind Chill: 48°   Ceiling: 2800
Heat Index: 48°   Visibility: 10mi
Dew Point: 46°   Wind: 0mph
Humidity: 92%   Direction: NA
Pressure: 29.94"   Gusts: NA
Location:  37.83°N, 80.73°W
Report Text: KLWB 210655Z AUTO 00000KT 10SM BKN028 BKN035 OVC080 09/08 A2994 RMK AO2 T00910079
Loading
Personal Weather Stations






























Interactive Weather Map
Tropical Storm Tracking
New forecast layout! Learn more

10-Day Weather Forecast

Advertisements
Track Severe Weather on mobile